sensor_id;sensor_type;location;lat;lon;timestamp;P1;durP1;ratioP1;P2;durP2;ratioP2
35909;SDS011;22004;49.120;-0.200;2023-08-31T00:01:00;8.90;;;2.92;;
35909;SDS011;22004;49.120;-0.200;2023-08-31T00:03:26;8.63;;;2.60;;
35909;SDS011;22004;49.120;-0.200;2023-08-31T00:05:51;12.32;;;2.63;;
35909;SDS011;22004;49.120;-0.200;2023-08-31T00:08:16;8.73;;;2.30;;
35909;SDS011;22004;49.120;-0.200;2023-08-31T00:10:42;9.68;;;2.55;;
35909;SDS011;22004;49.120;-0.200;2023-08-31T00:13:08;8.85;;;3.00;;
35909;SDS011;22004;49.120;-0.200;2023-08-31T00:15:33;11.48;;;2.75;;
35909;SDS011;22004;49.120;-0.200;2023-08-31T00:18:00;8.00;;;2.70;;
35909;SDS011;22004;49.120;-0.200;2023-08-31T00:20:28;9.35;;;2.60;;
35909;SDS011;22004;49.120;-0.200;2023-08-31T00:22:55;7.45;;;2.65;;
35909;SDS011;22004;49.120;-0.200;2023-08-31T00:25:20;9.30;;;2.70;;
35909;SDS011;22004;49.120;-0.200;2023-08-31T00:27:46;9.60;;;2.55;;
35909;SDS011;22004;49.120;-0.200;2023-08-31T00:30:13;7.28;;;2.53;;
35909;SDS011;22004;49.120;-0.200;2023-08-31T00:32:42;9.48;;;2.33;;
35909;SDS011;22004;49.120;-0.200;2023-08-31T00:35:08;9.55;;;2.40;;
35909;SDS011;22004;49.120;-0.200;2023-08-31T00:37:34;7.80;;;2.42;;
35909;SDS011;22004;49.120;-0.200;2023-08-31T00:39:59;9.27;;;2.97;;
35909;SDS011;22004;49.120;-0.200;2023-08-31T00:42:25;7.32;;;2.85;;
35909;SDS011;22004;49.120;-0.200;2023-08-31T00:44:50;13.02;;;2.40;;
35909;SDS011;22004;49.120;-0.200;2023-08-31T00:47:16;8.63;;;2.65;;
35909;SDS011;22004;49.120;-0.200;2023-08-31T00:49:42;9.63;;;2.70;;
35909;SDS011;22004;49.120;-0.200;2023-08-31T00:52:07;6.70;;;2.28;;
35909;SDS011;22004;49.120;-0.200;2023-08-31T00:54:34;9.68;;;2.22;;
35909;SDS011;22004;49.120;-0.200;2023-08-31T00:57:00;10.32;;;2.55;;
35909;SDS011;22004;49.120;-0.200;2023-08-31T00:59:26;7.15;;;2.30;;
35909;SDS011;22004;49.120;-0.200;2023-08-31T01:04:51;10.07;;;2.90;;
35909;SDS011;22004;49.120;-0.200;2023-08-31T01:15:06;6.88;;;2.50;;
35909;SDS011;22004;49.120;-0.200;2023-08-31T01:17:37;7.20;;;2.30;;
35909;SDS011;22004;49.120;-0.200;2023-08-31T01:20:09;8.55;;;2.92;;
35909;SDS011;22004;49.120;-0.200;2023-08-31T01:22:40;7.80;;;2.55;;
35909;SDS011;22004;49.120;-0.200;2023-08-31T01:25:08;13.35;;;3.00;;
35909;SDS011;22004;49.120;-0.200;2023-08-31T01:27:35;6.10;;;2.38;;
35909;SDS011;22004;49.120;-0.200;2023-08-31T01:30:04;7.25;;;2.60;;
35909;SDS011;22004;49.120;-0.200;2023-08-31T01:32:31;7.85;;;2.65;;
35909;SDS011;22004;49.120;-0.200;2023-08-31T01:34:56;9.75;;;2.80;;
35909;SDS011;22004;49.120;-0.200;2023-08-31T01:37:38;9.65;;;2.65;;
35909;SDS011;22004;49.120;-0.200;2023-08-31T01:40:10;9.05;;;2.92;;
35909;SDS011;22004;49.120;-0.200;2023-08-31T01:42:42;10.18;;;3.10;;
35909;SDS011;22004;49.120;-0.200;2023-08-31T01:45:08;8.27;;;2.88;;
35909;SDS011;22004;49.120;-0.200;2023-08-31T01:47:39;8.55;;;2.47;;
35909;SDS011;22004;49.120;-0.200;2023-08-31T01:50:05;7.65;;;2.97;;
35909;SDS011;22004;49.120;-0.200;2023-08-31T01:52:31;7.72;;;2.70;;
35909;SDS011;22004;49.120;-0.200;2023-08-31T01:54:56;10.25;;;2.78;;
35909;SDS011;22004;49.120;-0.200;2023-08-31T01:57:22;11.52;;;2.55;;
35909;SDS011;22004;49.120;-0.200;2023-08-31T01:59:47;9.23;;;2.67;;
35909;SDS011;22004;49.120;-0.200;2023-08-31T02:02:12;10.98;;;2.92;;
35909;SDS011;22004;49.120;-0.200;2023-08-31T02:04:39;10.15;;;2.92;;
35909;SDS011;22004;49.120;-0.200;2023-08-31T02:07:04;9.35;;;2.85;;
35909;SDS011;22004;49.120;-0.200;2023-08-31T02:09:30;7.43;;;2.35;;
35909;SDS011;22004;49.120;-0.200;2023-08-31T02:11:55;8.23;;;2.78;;
35909;SDS011;22004;49.120;-0.200;2023-08-31T02:14:20;5.78;;;2.40;;
35909;SDS011;22004;49.120;-0.200;2023-08-31T02:16:47;6.57;;;2.40;;
35909;SDS011;22004;49.120;-0.200;2023-08-31T02:19:12;7.90;;;2.70;;
35909;SDS011;22004;49.120;-0.200;2023-08-31T02:21:38;7.45;;;2.35;;
35909;SDS011;22004;49.120;-0.200;2023-08-31T02:24:03;11.57;;;2.88;;
35909;SDS011;22004;49.120;-0.200;2023-08-31T02:26:29;8.45;;;2.47;;
35909;SDS011;22004;49.120;-0.200;2023-08-31T02:28:54;8.57;;;2.92;;
35909;SDS011;22004;49.120;-0.200;2023-08-31T02:31:20;9.00;;;2.70;;
35909;SDS011;22004;49.120;-0.200;2023-08-31T02:33:46;7.93;;;2.40;;
35909;SDS011;22004;49.120;-0.200;2023-08-31T02:36:12;8.20;;;2.90;;
35909;SDS011;22004;49.120;-0.200;2023-08-31T02:38:40;10.25;;;2.50;;
35909;SDS011;22004;49.120;-0.200;2023-08-31T02:41:05;7.43;;;2.67;;
35909;SDS011;22004;49.120;-0.200;2023-08-31T02:43:30;11.52;;;2.72;;
35909;SDS011;22004;49.120;-0.200;2023-08-31T02:45:59;8.75;;;2.80;;
35909;SDS011;22004;49.120;-0.200;2023-08-31T02:48:26;9.90;;;2.80;;
35909;SDS011;22004;49.120;-0.200;2023-08-31T02:50:53;7.75;;;2.50;;
35909;SDS011;22004;49.120;-0.200;2023-08-31T02:53:18;10.68;;;2.85;;
35909;SDS011;22004;49.120;-0.200;2023-08-31T02:55:44;8.25;;;2.88;;
35909;SDS011;22004;49.120;-0.200;2023-08-31T02:58:09;6.75;;;2.50;;
35909;SDS011;22004;49.120;-0.200;2023-08-31T03:00:34;10.70;;;2.75;;
35909;SDS011;22004;49.120;-0.200;2023-08-31T03:03:00;11.70;;;2.88;;
35909;SDS011;22004;49.120;-0.200;2023-08-31T03:05:25;9.93;;;2.63;;
35909;SDS011;22004;49.120;-0.200;2023-08-31T03:07:51;7.72;;;2.75;;
35909;SDS011;22004;49.120;-0.200;2023-08-31T03:10:16;8.07;;;2.42;;
35909;SDS011;22004;49.120;-0.200;2023-08-31T03:12:42;12.50;;;3.03;;
35909;SDS011;22004;49.120;-0.200;2023-08-31T03:15:07;12.10;;;2.70;;
35909;SDS011;22004;49.120;-0.200;2023-08-31T03:17:33;7.63;;;2.55;;
35909;SDS011;22004;49.120;-0.200;2023-08-31T03:19:58;10.40;;;2.83;;
35909;SDS011;22004;49.120;-0.200;2023-08-31T03:22:24;8.23;;;2.83;;
35909;SDS011;22004;49.120;-0.200;2023-08-31T03:24:49;8.52;;;3.10;;
35909;SDS011;22004;49.120;-0.200;2023-08-31T03:27:14;10.55;;;2.97;;
35909;SDS011;22004;49.120;-0.200;2023-08-31T03:29:41;8.55;;;2.67;;
35909;SDS011;22004;49.120;-0.200;2023-08-31T03:32:06;8.75;;;2.45;;
35909;SDS011;22004;49.120;-0.200;2023-08-31T03:34:32;12.20;;;3.00;;
35909;SDS011;22004;49.120;-0.200;2023-08-31T03:36:58;9.13;;;2.75;;
35909;SDS011;22004;49.120;-0.200;2023-08-31T03:39:27;7.47;;;2.50;;
35909;SDS011;22004;49.120;-0.200;2023-08-31T03:41:52;8.75;;;2.03;;
35909;SDS011;22004;49.120;-0.200;2023-08-31T03:44:17;9.40;;;2.80;;
35909;SDS011;22004;49.120;-0.200;2023-08-31T03:46:43;11.25;;;2.70;;
35909;SDS011;22004;49.120;-0.200;2023-08-31T03:49:08;8.02;;;2.42;;
35909;SDS011;22004;49.120;-0.200;2023-08-31T03:51:34;9.05;;;2.22;;
35909;SDS011;22004;49.120;-0.200;2023-08-31T03:53:59;10.40;;;2.65;;
35909;SDS011;22004;49.120;-0.200;2023-08-31T03:56:25;8.35;;;2.58;;
35909;SDS011;22004;49.120;-0.200;2023-08-31T03:58:51;10.32;;;2.60;;
35909;SDS011;22004;49.120;-0.200;2023-08-31T04:01:17;7.85;;;2.60;;
35909;SDS011;22004;49.120;-0.200;2023-08-31T04:03:42;8.85;;;2.97;;
35909;SDS011;22004;49.120;-0.200;2023-08-31T04:06:08;10.77;;;2.58;;
35909;SDS011;22004;49.120;-0.200;2023-08-31T04:08:33;8.70;;;2.55;;
35909;SDS011;22004;49.120;-0.200;2023-08-31T04:10:58;10.00;;;2.63;;
35909;SDS011;22004;49.120;-0.200;2023-08-31T04:13:24;8.60;;;2.78;;
35909;SDS011;22004;49.120;-0.200;2023-08-31T04:15:49;9.68;;;2.90;;
35909;SDS011;22004;49.120;-0.200;2023-08-31T04:18:14;7.45;;;2.35;;
35909;SDS011;22004;49.120;-0.200;2023-08-31T04:20:47;12.93;;;3.00;;
35909;SDS011;22004;49.120;-0.200;2023-08-31T04:23:14;12.57;;;3.13;;
35909;SDS011;22004;49.120;-0.200;2023-08-31T04:25:40;7.65;;;2.22;;
35909;SDS011;22004;49.120;-0.200;2023-08-31T04:28:07;10.93;;;2.70;;
35909;SDS011;22004;49.120;-0.200;2023-08-31T04:30:32;10.18;;;2.65;;
35909;SDS011;22004;49.120;-0.200;2023-08-31T04:32:58;9.43;;;2.70;;
35909;SDS011;22004;49.120;-0.200;2023-08-31T04:35:23;11.13;;;2.40;;
35909;SDS011;22004;49.120;-0.200;2023-08-31T04:37:49;8.13;;;2.53;;
35909;SDS011;22004;49.120;-0.200;2023-08-31T04:40:14;8.35;;;2.80;;
35909;SDS011;22004;49.120;-0.200;2023-08-31T04:42:40;9.90;;;2.92;;
35909;SDS011;22004;49.120;-0.200;2023-08-31T04:45:05;8.32;;;2.95;;
35909;SDS011;22004;49.120;-0.200;2023-08-31T04:47:31;8.95;;;3.00;;
35909;SDS011;22004;49.120;-0.200;2023-08-31T04:49:56;8.25;;;2.80;;
35909;SDS011;22004;49.120;-0.200;2023-08-31T04:52:24;9.18;;;2.72;;
35909;SDS011;22004;49.120;-0.200;2023-08-31T04:54:49;6.38;;;2.20;;
35909;SDS011;22004;49.120;-0.200;2023-08-31T04:57:15;10.75;;;2.65;;
35909;SDS011;22004;49.120;-0.200;2023-08-31T04:59:40;7.88;;;2.08;;
35909;SDS011;22004;49.120;-0.200;2023-08-31T05:02:05;7.18;;;2.53;;
35909;SDS011;22004;49.120;-0.200;2023-08-31T05:04:31;9.38;;;2.63;;
35909;SDS011;22004;49.120;-0.200;2023-08-31T05:06:56;8.10;;;2.53;;
35909;SDS011;22004;49.120;-0.200;2023-08-31T05:09:23;9.68;;;2.80;;
35909;SDS011;22004;49.120;-0.200;2023-08-31T05:11:49;9.95;;;2.80;;
35909;SDS011;22004;49.120;-0.200;2023-08-31T05:14:14;7.15;;;2.17;;
35909;SDS011;22004;49.120;-0.200;2023-08-31T05:16:40;9.32;;;2.47;;
35909;SDS011;22004;49.120;-0.200;2023-08-31T05:19:05;12.45;;;2.95;;
35909;SDS011;22004;49.120;-0.200;2023-08-31T05:21:30;7.45;;;2.75;;
35909;SDS011;22004;49.120;-0.200;2023-08-31T05:23:56;10.07;;;2.80;;
35909;SDS011;22004;49.120;-0.200;2023-08-31T05:26:21;6.30;;;2.50;;
35909;SDS011;22004;49.120;-0.200;2023-08-31T05:28:47;8.30;;;2.35;;
35909;SDS011;22004;49.120;-0.200;2023-08-31T05:31:13;8.30;;;2.33;;
35909;SDS011;22004;49.120;-0.200;2023-08-31T05:33:38;9.10;;;2.72;;
35909;SDS011;22004;49.120;-0.200;2023-08-31T05:36:04;11.98;;;2.42;;
35909;SDS011;22004;49.120;-0.200;2023-08-31T05:38:29;9.43;;;3.08;;
35909;SDS011;22004;49.120;-0.200;2023-08-31T05:41:02;10.10;;;2.60;;
35909;SDS011;22004;49.120;-0.200;2023-08-31T05:43:29;11.38;;;2.88;;
35909;SDS011;22004;49.120;-0.200;2023-08-31T05:45:54;10.27;;;2.40;;
35909;SDS011;22004;49.120;-0.200;2023-08-31T05:48:19;8.27;;;2.53;;
35909;SDS011;22004;49.120;-0.200;2023-08-31T05:50:44;7.85;;;2.50;;
35909;SDS011;22004;49.120;-0.200;2023-08-31T05:53:10;10.38;;;2.70;;
35909;SDS011;22004;49.120;-0.200;2023-08-31T05:55:35;8.10;;;2.58;;
35909;SDS011;22004;49.120;-0.200;2023-08-31T05:58:01;13.25;;;2.55;;
35909;SDS011;22004;49.120;-0.200;2023-08-31T06:00:26;8.00;;;2.15;;
35909;SDS011;22004;49.120;-0.200;2023-08-31T06:02:51;13.75;;;2.65;;
35909;SDS011;22004;49.120;-0.200;2023-08-31T06:05:17;8.73;;;3.15;;
35909;SDS011;22004;49.120;-0.200;2023-08-31T06:07:42;11.18;;;2.45;;
35909;SDS011;22004;49.120;-0.200;2023-08-31T06:10:08;8.60;;;3.08;;
35909;SDS011;22004;49.120;-0.200;2023-08-31T06:12:34;8.68;;;2.83;;
35909;SDS011;22004;49.120;-0.200;2023-08-31T06:15:00;13.35;;;3.75;;
35909;SDS011;22004;49.120;-0.200;2023-08-31T06:17:25;9.65;;;3.10;;
35909;SDS011;22004;49.120;-0.200;2023-08-31T06:19:51;8.68;;;2.85;;
35909;SDS011;22004;49.120;-0.200;2023-08-31T06:22:16;8.57;;;3.10;;
35909;SDS011;22004;49.120;-0.200;2023-08-31T06:24:41;10.18;;;2.50;;
35909;SDS011;22004;49.120;-0.200;2023-08-31T06:27:07;5.85;;;2.30;;
35909;SDS011;22004;49.120;-0.200;2023-08-31T06:29:32;8.30;;;2.70;;
35909;SDS011;22004;49.120;-0.200;2023-08-31T06:31:58;9.55;;;2.45;;
35909;SDS011;22004;49.120;-0.200;2023-08-31T06:34:23;10.48;;;2.78;;
35909;SDS011;22004;49.120;-0.200;2023-08-31T06:36:48;8.45;;;2.47;;
35909;SDS011;22004;49.120;-0.200;2023-08-31T06:39:14;9.63;;;2.60;;
35909;SDS011;22004;49.120;-0.200;2023-08-31T06:41:40;12.48;;;3.70;;
35909;SDS011;22004;49.120;-0.200;2023-08-31T06:44:06;9.23;;;3.10;;
35909;SDS011;22004;49.120;-0.200;2023-08-31T06:46:31;11.15;;;2.60;;
35909;SDS011;22004;49.120;-0.200;2023-08-31T06:49:02;15.07;;;3.33;;
35909;SDS011;22004;49.120;-0.200;2023-08-31T06:51:29;12.20;;;2.88;;
35909;SDS011;22004;49.120;-0.200;2023-08-31T06:53:55;8.13;;;2.55;;
35909;SDS011;22004;49.120;-0.200;2023-08-31T06:56:20;8.48;;;2.33;;
35909;SDS011;22004;49.120;-0.200;2023-08-31T06:58:46;6.65;;;2.28;;
35909;SDS011;22004;49.120;-0.200;2023-08-31T07:01:12;7.53;;;2.33;;
35909;SDS011;22004;49.120;-0.200;2023-08-31T07:03:38;14.40;;;3.13;;
35909;SDS011;22004;49.120;-0.200;2023-08-31T07:06:03;7.53;;;2.58;;
35909;SDS011;22004;49.120;-0.200;2023-08-31T07:08:28;8.57;;;2.53;;
35909;SDS011;22004;49.120;-0.200;2023-08-31T07:10:55;6.15;;;2.88;;
35909;SDS011;22004;49.120;-0.200;2023-08-31T07:13:20;5.90;;;2.15;;
35909;SDS011;22004;49.120;-0.200;2023-08-31T07:15:46;8.90;;;2.22;;
35909;SDS011;22004;49.120;-0.200;2023-08-31T07:18:14;13.95;;;3.28;;
35909;SDS011;22004;49.120;-0.200;2023-08-31T07:20:39;12.30;;;2.58;;
35909;SDS011;22004;49.120;-0.200;2023-08-31T07:23:05;10.35;;;2.60;;
35909;SDS011;22004;49.120;-0.200;2023-08-31T07:25:30;11.63;;;2.88;;
35909;SDS011;22004;49.120;-0.200;2023-08-31T07:27:55;9.95;;;2.97;;
35909;SDS011;22004;49.120;-0.200;2023-08-31T07:30:21;13.05;;;3.08;;
35909;SDS011;22004;49.120;-0.200;2023-08-31T07:32:46;14.60;;;2.92;;
35909;SDS011;22004;49.120;-0.200;2023-08-31T07:35:12;7.88;;;2.75;;
35909;SDS011;22004;49.120;-0.200;2023-08-31T07:37:37;14.23;;;3.53;;
35909;SDS011;22004;49.120;-0.200;2023-08-31T07:40:03;12.05;;;2.65;;
35909;SDS011;22004;49.120;-0.200;2023-08-31T07:42:33;13.95;;;3.55;;
35909;SDS011;22004;49.120;-0.200;2023-08-31T07:44:59;9.88;;;2.70;;
35909;SDS011;22004;49.120;-0.200;2023-08-31T07:47:24;15.63;;;3.88;;
35909;SDS011;22004;49.120;-0.200;2023-08-31T07:49:49;12.90;;;3.13;;
35909;SDS011;22004;49.120;-0.200;2023-08-31T07:52:15;9.02;;;2.85;;
35909;SDS011;22004;49.120;-0.200;2023-08-31T07:54:40;9.57;;;2.72;;
35909;SDS011;22004;49.120;-0.200;2023-08-31T07:57:05;15.20;;;3.50;;
35909;SDS011;22004;49.120;-0.200;2023-08-31T07:59:31;12.35;;;3.17;;
35909;SDS011;22004;49.120;-0.200;2023-08-31T08:01:56;15.10;;;3.25;;
35909;SDS011;22004;49.120;-0.200;2023-08-31T08:04:21;13.13;;;3.05;;
35909;SDS011;22004;49.120;-0.200;2023-08-31T08:06:48;7.55;;;2.40;;
35909;SDS011;22004;49.120;-0.200;2023-08-31T08:09:14;8.15;;;2.65;;
35909;SDS011;22004;49.120;-0.200;2023-08-31T08:11:40;9.52;;;2.70;;
35909;SDS011;22004;49.120;-0.200;2023-08-31T08:14:07;22.38;;;4.20;;
35909;SDS011;22004;49.120;-0.200;2023-08-31T08:16:32;10.50;;;2.75;;
35909;SDS011;22004;49.120;-0.200;2023-08-31T08:19:00;11.73;;;3.22;;
35909;SDS011;22004;49.120;-0.200;2023-08-31T08:21:26;14.27;;;3.90;;
35909;SDS011;22004;49.120;-0.200;2023-08-31T08:23:51;14.32;;;4.22;;
35909;SDS011;22004;49.120;-0.200;2023-08-31T08:26:17;22.73;;;4.00;;
35909;SDS011;22004;49.120;-0.200;2023-08-31T08:28:42;20.52;;;3.58;;
35909;SDS011;22004;49.120;-0.200;2023-08-31T08:31:08;10.98;;;3.00;;
35909;SDS011;22004;49.120;-0.200;2023-08-31T08:33:33;8.88;;;2.53;;
35909;SDS011;22004;49.120;-0.200;2023-08-31T08:35:58;12.77;;;3.35;;
35909;SDS011;22004;49.120;-0.200;2023-08-31T08:38:25;14.60;;;4.15;;
35909;SDS011;22004;49.120;-0.200;2023-08-31T08:40:50;15.85;;;3.60;;
35909;SDS011;22004;49.120;-0.200;2023-08-31T08:43:16;13.68;;;3.67;;
35909;SDS011;22004;49.120;-0.200;2023-08-31T08:45:52;14.98;;;3.63;;
35909;SDS011;22004;49.120;-0.200;2023-08-31T08:48:18;19.90;;;5.07;;
35909;SDS011;22004;49.120;-0.200;2023-08-31T08:50:45;18.27;;;4.22;;
35909;SDS011;22004;49.120;-0.200;2023-08-31T08:53:11;6.43;;;2.55;;
35909;SDS011;22004;49.120;-0.200;2023-08-31T08:55:40;14.30;;;3.53;;
35909;SDS011;22004;49.120;-0.200;2023-08-31T08:58:06;16.00;;;3.20;;
35909;SDS011;22004;49.120;-0.200;2023-08-31T09:00:32;14.50;;;3.58;;
35909;SDS011;22004;49.120;-0.200;2023-08-31T09:02:59;23.42;;;4.72;;
35909;SDS011;22004;49.120;-0.200;2023-08-31T09:05:30;7.95;;;2.83;;
35909;SDS011;22004;49.120;-0.200;2023-08-31T09:07:59;18.08;;;3.40;;
35909;SDS011;22004;49.120;-0.200;2023-08-31T09:10:32;11.48;;;3.30;;
35909;SDS011;22004;49.120;-0.200;2023-08-31T09:13:11;9.25;;;2.92;;
35909;SDS011;22004;49.120;-0.200;2023-08-31T09:18:27;10.73;;;3.80;;
35909;SDS011;22004;49.120;-0.200;2023-08-31T09:20:56;13.65;;;3.47;;
35909;SDS011;22004;49.120;-0.200;2023-08-31T09:23:22;10.27;;;3.08;;
35909;SDS011;22004;49.120;-0.200;2023-08-31T09:25:52;15.88;;;3.95;;
35909;SDS011;22004;49.120;-0.200;2023-08-31T09:28:25;11.52;;;3.72;;
35909;SDS011;22004;49.120;-0.200;2023-08-31T09:30:52;12.57;;;3.58;;
35909;SDS011;22004;49.120;-0.200;2023-08-31T09:33:19;9.85;;;3.30;;
35909;SDS011;22004;49.120;-0.200;2023-08-31T09:35:57;10.30;;;3.15;;
35909;SDS011;22004;49.120;-0.200;2023-08-31T09:38:25;9.18;;;2.75;;
35909;SDS011;22004;49.120;-0.200;2023-08-31T09:40:50;11.82;;;3.38;;
35909;SDS011;22004;49.120;-0.200;2023-08-31T09:43:19;10.25;;;3.35;;
35909;SDS011;22004;49.120;-0.200;2023-08-31T09:45:48;14.52;;;3.45;;
35909;SDS011;22004;49.120;-0.200;2023-08-31T09:48:16;11.80;;;3.20;;
35909;SDS011;22004;49.120;-0.200;2023-08-31T09:50:43;16.08;;;4.05;;
35909;SDS011;22004;49.120;-0.200;2023-08-31T09:53:10;10.25;;;3.72;;
35909;SDS011;22004;49.120;-0.200;2023-08-31T09:55:38;9.70;;;3.22;;
35909;SDS011;22004;49.120;-0.200;2023-08-31T09:58:06;10.68;;;3.97;;
35909;SDS011;22004;49.120;-0.200;2023-08-31T10:00:33;11.85;;;3.50;;
35909;SDS011;22004;49.120;-0.200;2023-08-31T10:03:02;9.60;;;3.17;;
35909;SDS011;22004;49.120;-0.200;2023-08-31T10:05:29;11.13;;;3.50;;
35909;SDS011;22004;49.120;-0.200;2023-08-31T10:07:56;10.52;;;3.72;;
35909;SDS011;22004;49.120;-0.200;2023-08-31T10:10:22;8.10;;;3.10;;
35909;SDS011;22004;49.120;-0.200;2023-08-31T10:12:48;10.75;;;3.15;;
35909;SDS011;22004;49.120;-0.200;2023-08-31T10:15:15;13.80;;;3.40;;
35909;SDS011;22004;49.120;-0.200;2023-08-31T10:17:41;12.88;;;3.13;;
35909;SDS011;22004;49.120;-0.200;2023-08-31T10:20:08;10.15;;;3.10;;
35909;SDS011;22004;49.120;-0.200;2023-08-31T10:22:36;11.32;;;3.15;;
35909;SDS011;22004;49.120;-0.200;2023-08-31T10:25:05;7.57;;;2.90;;
35909;SDS011;22004;49.120;-0.200;2023-08-31T10:27:44;10.82;;;3.50;;
35909;SDS011;22004;49.120;-0.200;2023-08-31T10:30:16;10.45;;;3.28;;
35909;SDS011;22004;49.120;-0.200;2023-08-31T10:35:49;9.15;;;3.30;;
35909;SDS011;22004;49.120;-0.200;2023-08-31T10:38:16;12.00;;;3.50;;
35909;SDS011;22004;49.120;-0.200;2023-08-31T10:43:49;8.10;;;2.50;;
35909;SDS011;22004;49.120;-0.200;2023-08-31T10:49:00;7.93;;;2.35;;
35909;SDS011;22004;49.120;-0.200;2023-08-31T10:51:31;3.58;;;1.80;;
35909;SDS011;22004;49.120;-0.200;2023-08-31T10:54:07;2.22;;;1.52;;
35909;SDS011;22004;49.120;-0.200;2023-08-31T11:02:26;5.28;;;1.92;;
35909;SDS011;22004;49.120;-0.200;2023-08-31T11:07:31;2.40;;;1.40;;
35909;SDS011;22004;49.120;-0.200;2023-08-31T11:10:16;4.03;;;2.03;;
35909;SDS011;22004;49.120;-0.200;2023-08-31T11:12:43;4.10;;;2.15;;
35909;SDS011;22004;49.120;-0.200;2023-08-31T11:15:13;4.07;;;2.10;;
35909;SDS011;22004;49.120;-0.200;2023-08-31T11:17:40;4.15;;;1.70;;
35909;SDS011;22004;49.120;-0.200;2023-08-31T11:20:07;4.07;;;1.92;;
35909;SDS011;22004;49.120;-0.200;2023-08-31T11:22:34;2.75;;;1.60;;
35909;SDS011;22004;49.120;-0.200;2023-08-31T11:25:04;3.65;;;2.15;;
35909;SDS011;22004;49.120;-0.200;2023-08-31T11:27:29;2.92;;;2.15;;
35909;SDS011;22004;49.120;-0.200;2023-08-31T11:29:55;4.68;;;2.20;;
35909;SDS011;22004;49.120;-0.200;2023-08-31T11:32:22;6.38;;;2.30;;
35909;SDS011;22004;49.120;-0.200;2023-08-31T11:34:49;3.78;;;2.30;;
35909;SDS011;22004;49.120;-0.200;2023-08-31T11:37:15;4.05;;;2.30;;
35909;SDS011;22004;49.120;-0.200;2023-08-31T11:39:42;8.30;;;2.65;;
35909;SDS011;22004;49.120;-0.200;2023-08-31T11:42:13;4.22;;;2.38;;
35909;SDS011;22004;49.120;-0.200;2023-08-31T11:44:38;3.25;;;2.50;;
35909;SDS011;22004;49.120;-0.200;2023-08-31T11:47:04;2.42;;;2.13;;
35909;SDS011;22004;49.120;-0.200;2023-08-31T11:49:30;5.18;;;2.35;;
35909;SDS011;22004;49.120;-0.200;2023-08-31T11:51:56;5.07;;;3.08;;
35909;SDS011;22004;49.120;-0.200;2023-08-31T11:54:24;6.10;;;2.80;;
35909;SDS011;22004;49.120;-0.200;2023-08-31T11:56:49;3.63;;;2.67;;
35909;SDS011;22004;49.120;-0.200;2023-08-31T11:59:16;4.15;;;2.78;;
35909;SDS011;22004;49.120;-0.200;2023-08-31T12:01:42;3.80;;;2.53;;
35909;SDS011;22004;49.120;-0.200;2023-08-31T12:04:12;6.82;;;3.00;;
35909;SDS011;22004;49.120;-0.200;2023-08-31T12:09:05;4.53;;;3.53;;
35909;SDS011;22004;49.120;-0.200;2023-08-31T12:11:32;3.53;;;2.88;;
35909;SDS011;22004;49.120;-0.200;2023-08-31T12:14:01;4.78;;;3.35;;
35909;SDS011;22004;49.120;-0.200;2023-08-31T12:16:32;3.13;;;2.67;;
35909;SDS011;22004;49.120;-0.200;2023-08-31T12:19:01;3.03;;;2.63;;
35909;SDS011;22004;49.120;-0.200;2023-08-31T12:21:27;3.03;;;2.53;;
35909;SDS011;22004;49.120;-0.200;2023-08-31T12:23:53;2.83;;;2.42;;
35909;SDS011;22004;49.120;-0.200;2023-08-31T12:26:18;4.95;;;2.63;;
35909;SDS011;22004;49.120;-0.200;2023-08-31T12:28:43;4.30;;;2.63;;
35909;SDS011;22004;49.120;-0.200;2023-08-31T12:31:09;3.53;;;1.80;;
35909;SDS011;22004;49.120;-0.200;2023-08-31T12:33:34;4.93;;;2.38;;
35909;SDS011;22004;49.120;-0.200;2023-08-31T12:35:59;3.25;;;2.25;;
35909;SDS011;22004;49.120;-0.200;2023-08-31T12:38:25;4.15;;;2.10;;
35909;SDS011;22004;49.120;-0.200;2023-08-31T12:40:50;2.03;;;1.85;;
35909;SDS011;22004;49.120;-0.200;2023-08-31T12:43:17;3.80;;;1.80;;
35909;SDS011;22004;49.120;-0.200;2023-08-31T12:45:42;1.73;;;1.60;;
35909;SDS011;22004;49.120;-0.200;2023-08-31T12:48:07;3.00;;;1.52;;
35909;SDS011;22004;49.120;-0.200;2023-08-31T12:50:33;2.55;;;1.73;;
35909;SDS011;22004;49.120;-0.200;2023-08-31T12:52:59;3.20;;;1.70;;
35909;SDS011;22004;49.120;-0.200;2023-08-31T12:55:24;1.17;;;1.08;;
35909;SDS011;22004;49.120;-0.200;2023-08-31T12:57:49;2.65;;;1.58;;
35909;SDS011;22004;49.120;-0.200;2023-08-31T13:00:15;3.08;;;1.63;;
35909;SDS011;22004;49.120;-0.200;2023-08-31T13:02:41;4.45;;;1.33;;
35909;SDS011;22004;49.120;-0.200;2023-08-31T13:05:07;3.60;;;1.63;;
35909;SDS011;22004;49.120;-0.200;2023-08-31T13:07:36;1.67;;;1.10;;
35909;SDS011;22004;49.120;-0.200;2023-08-31T13:10:02;0.90;;;0.80;;
35909;SDS011;22004;49.120;-0.200;2023-08-31T13:12:31;3.28;;;1.60;;
35909;SDS011;22004;49.120;-0.200;2023-08-31T13:14:57;1.50;;;1.00;;
35909;SDS011;22004;49.120;-0.200;2023-08-31T13:17:23;3.17;;;1.40;;
35909;SDS011;22004;49.120;-0.200;2023-08-31T13:19:52;3.65;;;1.20;;
35909;SDS011;22004;49.120;-0.200;2023-08-31T13:22:18;4.03;;;1.60;;
35909;SDS011;22004;49.120;-0.200;2023-08-31T13:24:43;1.45;;;1.08;;
35909;SDS011;22004;49.120;-0.200;2023-08-31T13:27:08;1.80;;;1.10;;
35909;SDS011;22004;49.120;-0.200;2023-08-31T13:29:34;4.15;;;1.20;;
35909;SDS011;22004;49.120;-0.200;2023-08-31T13:31:59;3.20;;;1.08;;
35909;SDS011;22004;49.120;-0.200;2023-08-31T13:34:24;1.45;;;1.20;;
35909;SDS011;22004;49.120;-0.200;2023-08-31T13:36:50;2.42;;;1.38;;
35909;SDS011;22004;49.120;-0.200;2023-08-31T13:39:15;3.08;;;1.40;;
35909;SDS011;22004;49.120;-0.200;2023-08-31T13:41:41;2.10;;;1.00;;
35909;SDS011;22004;49.120;-0.200;2023-08-31T13:44:07;1.58;;;0.70;;
35909;SDS011;22004;49.120;-0.200;2023-08-31T13:46:32;2.30;;;0.90;;
35909;SDS011;22004;49.120;-0.200;2023-08-31T13:48:57;1.27;;;0.85;;
35909;SDS011;22004;49.120;-0.200;2023-08-31T13:51:23;1.30;;;0.93;;
35909;SDS011;22004;49.120;-0.200;2023-08-31T13:53:48;2.22;;;1.10;;
35909;SDS011;22004;49.120;-0.200;2023-08-31T13:56:13;2.38;;;0.77;;
35909;SDS011;22004;49.120;-0.200;2023-08-31T13:58:38;2.28;;;0.85;;
35909;SDS011;22004;49.120;-0.200;2023-08-31T14:01:05;1.58;;;0.70;;
35909;SDS011;22004;49.120;-0.200;2023-08-31T14:03:30;1.35;;;1.17;;
35909;SDS011;22004;49.120;-0.200;2023-08-31T14:05:55;3.33;;;1.63;;
35909;SDS011;22004;49.120;-0.200;2023-08-31T14:08:21;1.67;;;1.20;;
35909;SDS011;22004;49.120;-0.200;2023-08-31T14:10:46;1.63;;;0.95;;
35909;SDS011;22004;49.120;-0.200;2023-08-31T14:13:12;0.80;;;0.80;;
35909;SDS011;22004;49.120;-0.200;2023-08-31T14:15:37;1.40;;;1.15;;
35909;SDS011;22004;49.120;-0.200;2023-08-31T14:18:09;2.53;;;1.00;;
35909;SDS011;22004;49.120;-0.200;2023-08-31T14:20:34;1.70;;;0.88;;
35909;SDS011;22004;49.120;-0.200;2023-08-31T14:22:59;1.67;;;0.90;;
35909;SDS011;22004;49.120;-0.200;2023-08-31T14:25:25;1.17;;;0.90;;
35909;SDS011;22004;49.120;-0.200;2023-08-31T14:27:50;2.58;;;1.10;;
35909;SDS011;22004;49.120;-0.200;2023-08-31T14:30:16;1.65;;;0.90;;
35909;SDS011;22004;49.120;-0.200;2023-08-31T14:32:41;0.82;;;0.77;;
35909;SDS011;22004;49.120;-0.200;2023-08-31T14:35:06;1.00;;;0.77;;
35909;SDS011;22004;49.120;-0.200;2023-08-31T14:37:32;1.52;;;0.90;;
35909;SDS011;22004;49.120;-0.200;2023-08-31T14:39:57;3.92;;;1.73;;
35909;SDS011;22004;49.120;-0.200;2023-08-31T14:42:23;2.00;;;0.70;;
35909;SDS011;22004;49.120;-0.200;2023-08-31T14:44:48;1.65;;;0.88;;
35909;SDS011;22004;49.120;-0.200;2023-08-31T14:47:14;3.45;;;0.82;;
35909;SDS011;22004;49.120;-0.200;2023-08-31T14:49:39;1.60;;;0.80;;
35909;SDS011;22004;49.120;-0.200;2023-08-31T14:52:08;1.63;;;0.90;;
35909;SDS011;22004;49.120;-0.200;2023-08-31T14:54:33;2.65;;;0.90;;
35909;SDS011;22004;49.120;-0.200;2023-08-31T14:56:59;1.00;;;0.80;;
35909;SDS011;22004;49.120;-0.200;2023-08-31T14:59:24;0.98;;;0.90;;